Time;durP1;ratioP1;P1;durP2;ratioP2;P2;SDS_P1;SDS_P2;PMS_P1;PMS_P2;Temp;Humidity;BMP_temperature;BMP_pressure;BME280_temperature;BME280_humidity;BME280_pressure;Samples;Min_cycle;Max_cycle;Signal;HPM_P1;HPM_P2
2021/05/25 00:01:31;;;;;;;7.50;3.60;;;;;;;15.71;61.00;100242.91;1790446;78;25174;-74
2021/05/25 00:03:57;;;;;;;9.63;2.92;;;;;;;15.73;61.13;100244.81;1791484;78;25730;-74
2021/05/25 00:06:23;;;;;;;5.40;3.00;;;;;;;15.73;61.09;100236.09;1789996;78;25195;-74
2021/05/25 00:08:49;;;;;;;4.87;2.92;;;;;;;15.74;61.15;100231.12;1792907;78;25528;-74
2021/05/25 00:11:16;;;;;;;6.67;3.10;;;;;;;15.73;61.19;100228.19;1788947;78;25627;-74
2021/05/25 00:13:42;;;;;;;6.47;3.12;;;;;;;15.73;61.21;100222.92;1791437;78;25633;-74
2021/05/25 00:16:08;;;;;;;6.50;2.90;;;;;;;15.77;61.27;100222.84;1790091;78;25558;-74
2021/05/25 00:18:34;;;;;;;6.40;2.72;;;;;;;15.76;61.31;100214.61;1789297;78;25106;-75
2021/05/25 00:21:00;;;;;;;4.97;2.45;;;;;;;15.79;61.35;100214.20;1787813;78;32317;-75
2021/05/25 00:23:26;;;;;;;6.70;2.72;;;;;;;15.79;61.34;100214.70;1765311;79;26198;-74
2021/05/25 00:25:52;;;;;;;4.90;2.65;;;;;;;15.78;61.48;100222.33;1789109;78;32814;-72
2021/05/25 00:28:20;;;;;;;8.60;3.00;;;;;;;15.78;61.48;100222.33;1793278;78;25582;-72
2021/05/25 00:30:47;;;;;;;6.30;2.90;;;;;;;15.80;61.54;100219.80;1790555;78;25145;-72
2021/05/25 00:33:13;;;;;;;6.60;2.55;;;;;;;15.80;61.61;100220.30;1790239;78;25102;-72
2021/05/25 00:35:40;;;;;;;9.03;3.27;;;;;;;15.78;61.66;100217.86;1788787;78;26101;-72
2021/05/25 00:38:07;;;;;;;7.75;2.87;;;;;;;15.78;61.77;100227.08;1790352;78;25173;-72
2021/05/25 00:40:34;;;;;;;5.78;2.92;;;;;;;15.75;61.83;100227.48;1793498;78;25140;-75
2021/05/25 00:43:00;;;;;;;5.58;2.87;;;;;;;15.73;61.91;100226.36;1791965;78;25557;-74
2021/05/25 00:45:27;;;;;;;6.60;3.25;;;;;;;15.74;61.98;100223.21;1789213;78;25165;-74
2021/05/25 00:47:53;;;;;;;6.25;2.60;;;;;;;15.76;62.02;100232.54;1789045;78;25499;-74
2021/05/25 00:50:24;;;;;;;5.80;2.60;;;;;;;15.73;62.08;100221.09;1788867;78;26215;-74
2021/05/25 00:52:54;;;;;;;6.22;3.20;;;;;;;15.73;62.29;100229.51;1792700;79;25544;-75
2021/05/25 00:55:25;;;;;;;8.08;2.87;;;;;;;15.68;62.29;100227.47;1792734;78;25155;-75
2021/05/25 00:57:55;;;;;;;5.42;3.00;;;;;;;15.69;62.37;100223.03;1789314;78;25133;-75
2021/05/25 01:00:31;;;;;;;5.47;2.73;;;;;;;15.68;62.49;100220.05;1809593;78;25556;-75
2021/05/25 01:02:58;;;;;;;6.85;3.00;;;;;;;15.67;62.57;100218.44;1807308;77;26500;-74
2021/05/25 01:05:24;;;;;;;6.58;2.98;;;;;;;15.68;62.68;100211.66;1808071;78;25440;-75
2021/05/25 01:07:50;;;;;;;6.10;3.30;;;;;;;15.68;62.70;100214.77;1812087;78;25597;-73
2021/05/25 01:10:30;;;;;;;5.90;2.90;;;;;;;15.70;62.81;100212.27;1809381;77;26388;-72
2021/05/25 01:13:03;;;;;;;6.55;3.00;;;;;;;15.68;62.84;100216.93;1806787;77;25616;-75
2021/05/25 01:15:27;;;;;;;5.25;2.95;;;;;;;15.67;62.94;100215.80;1806121;77;25651;-72
2021/05/25 01:17:55;;;;;;;5.42;2.95;;;;;;;15.64;63.02;100210.94;1778263;79;25574;-72
2021/05/25 01:20:24;;;;;;;5.80;3.00;;;;;;;15.63;63.20;100206.66;1780711;79;25665;-73
2021/05/25 01:22:50;;;;;;;6.35;3.22;;;;;;;15.62;63.30;100203.73;1808240;78;25768;-73
2021/05/25 01:25:18;;;;;;;8.48;3.27;;;;;;;15.63;63.29;100204.86;1781572;78;25800;-72
2021/05/25 01:27:57;;;;;;;4.83;3.20;;;;;;;15.64;63.41;100191.17;1787172;78;25857;-73
2021/05/25 01:30:30;;;;;;;6.42;2.98;;;;;;;15.63;63.60;100183.78;1785845;78;25939;-72
2021/05/25 01:32:58;;;;;;;8.78;3.25;;;;;;;15.63;63.82;100164.50;1788000;78;25575;-72
2021/05/25 01:35:25;;;;;;;8.75;3.47;;;;;;;15.62;64.03;100148.41;1788485;79;25874;-72
2021/05/25 01:37:53;;;;;;;5.90;3.50;;;;;;;15.62;64.19;100132.08;1787585;78;25719;-72
2021/05/25 01:40:20;;;;;;;7.70;3.05;;;;;;;15.60;64.42;100122.25;1791386;78;25176;-72
2021/05/25 01:42:47;;;;;;;7.08;2.92;;;;;;;15.56;64.62;100121.05;1788211;78;25151;-72
2021/05/25 01:45:18;;;;;;;9.08;3.15;;;;;;;15.53;64.83;100126.73;1792251;78;25550;-72
2021/05/25 01:47:44;;;;;;;5.92;3.22;;;;;;;15.52;65.09;100130.36;1790519;78;25626;-72
2021/05/25 01:50:17;;;;;;;6.60;3.10;;;;;;;15.49;65.21;100128.13;1791505;78;25533;-73
2021/05/25 01:53:01;;;;;;;6.72;2.52;;;;;;;15.50;65.37;100117.41;1787878;78;25558;-75
2021/05/25 01:55:47;;;;;;;7.17;3.10;;;;;;;15.52;65.46;100109.28;1787202;78;26367;-72
2021/05/25 01:58:18;;;;;;;7.37;3.12;;;;;;;15.52;65.64;100100.90;1789165;78;25192;-75
2021/05/25 02:00:52;;;;;;;6.00;3.12;;;;;;;15.47;65.77;100111.74;1808121;77;25137;-73
2021/05/25 02:03:18;;;;;;;6.03;3.08;;;;;;;15.43;66.08;100124.48;1811274;77;25589;-73
2021/05/25 02:05:48;;;;;;;5.28;3.20;;;;;;;15.32;66.67;100139.06;1790280;78;25644;-72
2021/05/25 02:08:16;;;;;;;7.42;3.15;;;;;;;15.20;66.90;100146.47;1790155;78;34651;-72
2021/05/25 02:10:50;;;;;;;5.25;3.12;;;;;;;15.16;67.81;100139.96;1786831;79;25926;-75
2021/05/25 02:13:20;;;;;;;4.45;3.22;;;;;;;15.06;67.88;100135.10;1788179;79;25564;-72
2021/05/25 02:15:51;;;;;;;6.05;2.90;;;;;;;14.97;68.13;100141.55;1791325;78;25595;-72
2021/05/25 02:18:22;;;;;;;5.60;3.00;;;;;;;14.94;68.44;100145.38;1787054;78;25184;-75
2021/05/25 02:20:51;;;;;;;6.70;3.02;;;;;;;14.90;68.82;100145.48;1803066;78;25499;-75
2021/05/25 02:23:17;;;;;;;5.72;2.92;;;;;;;14.84;68.94;100141.83;1779744;79;25163;-72
2021/05/25 02:25:44;;;;;;;5.20;2.85;;;;;;;14.82;69.19;100127.25;1777519;78;25790;-72
2021/05/25 02:28:11;;;;;;;10.32;3.00;;;;;;;14.79;69.47;100128.45;1779773;79;26287;-72
2021/05/25 02:30:38;;;;;;;5.08;2.83;;;;;;;14.75;70.07;100138.25;1793603;78;25543;-73
2021/05/25 02:33:09;;;;;;;6.87;2.83;;;;;;;14.63;70.29;100130.93;1779812;78;25229;-73
2021/05/25 02:35:36;;;;;;;7.60;3.67;;;;;;;14.59;70.55;100132.83;1806943;78;25904;-73
2021/05/25 02:38:08;;;;;;;6.90;3.35;;;;;;;14.53;71.24;100128.36;1808901;78;25573;-73
2021/05/25 02:40:35;;;;;;;7.12;2.87;;;;;;;14.48;71.63;100126.78;1773669;79;26124;-72
2021/05/25 02:43:04;;;;;;;4.83;2.87;;;;;;;14.38;71.87;100120.59;1785813;78;25704;-73
2021/05/25 02:45:31;;;;;;;7.87;2.92;;;;;;;14.35;72.23;100109.96;1788891;78;25781;-73
2021/05/25 02:47:58;;;;;;;7.72;3.25;;;;;;;14.30;72.58;100103.67;1788928;78;25602;-72
2021/05/25 02:50:25;;;;;;;6.00;3.58;;;;;;;14.28;72.75;100103.05;1792031;78;25297;-75
2021/05/25 02:52:53;;;;;;;4.87;2.80;;;;;;;14.22;73.30;100098.06;1792752;78;25767;-75
2021/05/25 02:55:26;;;;;;;6.87;3.22;;;;;;;14.23;73.17;100101.50;1789508;79;25586;-75
2021/05/25 02:57:54;;;;;;;7.12;3.22;;;;;;;14.21;73.54;100093.80;1784169;78;25538;-75
2021/05/25 03:00:24;;;;;;;6.17;2.95;;;;;;;14.18;73.57;100093.68;1787719;78;25978;-74
2021/05/25 03:02:50;;;;;;;3.62;2.90;;;;;;;14.17;73.84;100092.06;1788542;78;25240;-73
2021/05/25 03:05:18;;;;;;;3.98;2.70;;;;;;;14.17;74.20;100090.75;1791849;78;25509;-73
2021/05/25 03:07:45;;;;;;;7.33;3.10;;;;;;;14.12;74.14;100085.77;1788778;78;25220;-75
2021/05/25 03:10:15;;;;;;;5.45;3.27;;;;;;;14.06;75.05;100079.99;1789132;78;25557;-75
2021/05/25 03:12:42;;;;;;;7.00;3.25;;;;;;;14.01;74.76;100068.73;1787783;79;25523;-75
2021/05/25 03:15:32;;;;;;;3.47;2.67;;;;;;;13.97;74.93;100064.89;1789752;78;25566;-75
2021/05/25 03:17:59;;;;;;;7.03;3.10;;;;;;;13.94;75.22;100061.31;1748762;80;25700;-72
2021/05/25 03:20:25;;;;;;;5.85;3.58;;;;;;;13.98;75.56;100052.05;1748164;80;25175;-72
2021/05/25 03:22:52;;;;;;;7.87;3.40;;;;;;;13.97;75.62;100060.95;1748731;80;25200;-73
2021/05/25 03:25:18;;;;;;;4.03;2.98;;;;;;;13.98;75.98;100058.63;1747338;80;25648;-72
2021/05/25 03:27:46;;;;;;;8.88;2.90;;;;;;;14.00;75.86;100059.25;1750383;80;25182;-73
2021/05/25 03:30:17;;;;;;;7.05;2.95;;;;;;;14.03;75.97;100064.62;1748652;80;25636;-75
2021/05/25 03:32:43;;;;;;;6.05;3.17;;;;;;;14.02;76.12;100063.78;1749922;80;25315;-75
2021/05/25 03:35:12;;;;;;;4.33;2.90;;;;;;;14.01;76.15;100058.23;1748355;80;25423;-75
2021/05/25 03:37:39;;;;;;;6.25;3.00;;;;;;;14.07;76.37;100064.52;1748645;80;25205;-75
2021/05/25 03:40:09;;;;;;;5.55;3.10;;;;;;;14.09;76.61;100065.14;1749367;80;25813;-75
2021/05/25 03:42:35;;;;;;;9.10;4.67;;;;;;;14.03;76.50;100061.48;1751782;80;25596;-75
2021/05/25 03:45:01;;;;;;;5.58;3.22;;;;;;;14.05;76.61;100059.95;1749027;80;25572;-75
2021/05/25 03:47:27;;;;;;;7.20;4.03;;;;;;;14.09;76.78;100057.26;1724266;80;25267;-75
2021/05/25 03:49:54;;;;;;;8.00;3.75;;;;;;;14.08;77.17;100053.02;1748672;80;25524;-75
2021/05/25 03:52:20;;;;;;;6.80;3.50;;;;;;;14.03;77.46;100050.97;1748393;80;25574;-75
2021/05/25 03:54:54;;;;;;;9.35;3.50;;;;;;;14.01;77.06;100050.85;1749044;80;25505;-72
2021/05/25 03:58:46;;;;;;;6.08;3.12;;;;;;;14.02;77.28;100045.39;1747367;80;26546;-73
2021/05/25 03:59:42;;;;;;;6.00;3.22;;;;;;;14.03;77.31;100038.34;1742263;80;25591;-73
2021/05/25 04:02:09;;;;;;;5.72;3.42;;;;;;;14.06;77.53;100032.18;1750803;80;34803;-72
2021/05/25 04:04:34;;;;;;;6.40;4.00;;;;;;;14.05;77.51;100035.83;1749663;80;25509;-73
2021/05/25 04:07:00;;;;;;;8.48;4.08;;;;;;;14.06;77.54;100030.86;1748021;80;25566;-72
2021/05/25 04:09:26;;;;;;;7.25;3.75;;;;;;;14.08;77.70;100027.55;1747393;80;33334;-75
2021/05/25 04:11:52;;;;;;;6.72;3.87;;;;;;;14.09;77.77;100033.61;1750832;80;31823;-75
2021/05/25 04:14:18;;;;;;;7.03;3.25;;;;;;;14.11;77.81;100030.28;1750715;80;25677;-75
2021/05/25 04:16:44;;;;;;;7.90;4.08;;;;;;;14.14;77.98;100023.31;1745694;80;32246;-75
2021/05/25 04:19:10;;;;;;;5.83;3.40;;;;;;;14.15;78.13;100024.93;1748577;80;25634;-75
2021/05/25 04:21:36;;;;;;;7.03;3.98;;;;;;;14.10;78.19;100020.25;1747848;80;32862;-75
2021/05/25 04:24:03;;;;;;;6.75;3.90;;;;;;;14.07;78.46;100025.09;1748122;80;25150;-75
2021/05/25 04:26:29;;;;;;;6.85;4.03;;;;;;;14.04;78.59;100024.98;1746146;80;25192;-75
2021/05/25 04:28:55;;;;;;;7.72;3.90;;;;;;;14.01;78.75;100024.06;1750493;80;25211;-75
2021/05/25 04:31:21;;;;;;;6.37;3.70;;;;;;;13.98;78.79;100023.95;1751178;80;25652;-75
2021/05/25 04:33:47;;;;;;;7.97;3.90;;;;;;;13.96;79.43;100018.58;1749503;80;25957;-73
2021/05/25 04:36:18;;;;;;;7.62;4.35;;;;;;;13.91;79.56;100017.04;1750440;80;31154;-72
2021/05/25 04:38:45;;;;;;;6.03;3.58;;;;;;;13.92;79.40;100027.37;1745470;80;25644;-72
2021/05/25 04:41:11;;;;;;;6.85;4.15;;;;;;;13.92;79.57;100026.05;1748060;80;25559;-72
2021/05/25 04:43:37;;;;;;;6.42;4.17;;;;;;;13.91;79.67;100031.02;1746106;80;25668;-72
2021/05/25 04:46:03;;;;;;;5.83;3.52;;;;;;;13.93;79.83;100018.47;1747168;80;25592;-72
2021/05/25 04:48:30;;;;;;;7.65;3.55;;;;;;;13.97;79.87;100025.48;1750165;80;26214;-75
2021/05/25 04:50:55;;;;;;;6.33;3.98;;;;;;;13.96;79.97;100021.21;1750479;80;25182;-75
2021/05/25 04:53:21;;;;;;;5.30;3.30;;;;;;;13.94;80.17;100016.64;1750681;80;32307;-75
2021/05/25 04:55:47;;;;;;;7.90;3.70;;;;;;;13.93;80.67;100028.17;1747659;80;25664;-75
2021/05/25 04:58:13;;;;;;;6.30;4.08;;;;;;;13.83;80.98;100027.23;1749795;80;32880;-75
2021/05/25 05:00:39;;;;;;;7.87;3.98;;;;;;;13.82;80.77;100026.91;1748374;80;25626;-75
2021/05/25 05:03:06;;;;;;;8.35;4.25;;;;;;;13.85;80.86;100032.28;1749476;80;25755;-75
2021/05/25 05:05:32;;;;;;;5.28;3.80;;;;;;;13.82;81.54;100040.04;1747541;80;25190;-75
2021/05/25 05:07:58;;;;;;;7.28;3.80;;;;;;;13.80;81.14;100044.67;1749891;80;25735;-75
2021/05/25 05:10:24;;;;;;;7.47;3.70;;;;;;;13.81;81.12;100046.31;1748440;80;25523;-75
2021/05/25 05:12:50;;;;;;;7.87;3.47;;;;;;;13.83;81.28;100036.91;1751278;80;25318;-75
2021/05/25 05:15:17;;;;;;;6.80;3.40;;;;;;;13.81;81.36;100039.74;1747521;80;25540;-72
2021/05/25 05:17:45;;;;;;;8.15;3.83;;;;;;;13.80;81.40;100047.30;1749390;80;25185;-72
2021/05/25 05:20:12;;;;;;;5.22;3.95;;;;;;;13.79;81.61;100044.37;1747570;80;26186;-72
2021/05/25 05:22:40;;;;;;;8.40;3.37;;;;;;;13.79;81.46;100048.31;1749438;80;25541;-72
2021/05/25 05:25:09;;;;;;;6.50;3.95;;;;;;;13.80;81.87;100049.92;1747548;80;25492;-73
2021/05/25 05:27:35;;;;;;;6.15;3.67;;;;;;;13.78;81.96;100054.58;1747971;80;25140;-72
2021/05/25 05:30:02;;;;;;;7.47;3.72;;;;;;;13.80;81.92;100048.61;1748289;80;25197;-75
2021/05/25 05:32:28;;;;;;;8.35;4.45;;;;;;;13.82;82.05;100048.43;1751510;80;25791;-75
2021/05/25 05:34:53;;;;;;;6.53;3.83;;;;;;;13.81;81.93;100048.13;1749873;80;33008;-72
2021/05/25 05:37:19;;;;;;;8.23;4.17;;;;;;;13.83;82.56;100039.05;1750962;80;31486;-73
2021/05/25 05:39:45;;;;;;;7.42;3.47;;;;;;;13.84;82.78;100041.17;1752156;81;25183;-73
2021/05/25 05:42:12;;;;;;;5.65;3.83;;;;;;;13.84;82.38;100040.66;1751654;81;32314;-73
2021/05/25 05:44:38;;;;;;;7.20;3.67;;;;;;;13.85;82.45;100039.65;1749239;80;25540;-75
2021/05/25 05:47:04;;;;;;;7.65;3.77;;;;;;;13.87;82.76;100045.53;1751447;80;25489;-75
2021/05/25 05:49:30;;;;;;;7.28;3.50;;;;;;;13.86;83.12;100049.17;1748364;80;25577;-75
2021/05/25 05:51:56;;;;;;;6.42;4.05;;;;;;;13.86;82.80;100045.23;1726705;81;34671;-75
2021/05/25 05:54:22;;;;;;;6.25;3.72;;;;;;;13.86;83.16;100045.23;1753087;80;25644;-75
2021/05/25 05:56:48;;;;;;;3.98;3.02;;;;;;;13.90;83.33;100045.14;1749700;80;25599;-75
2021/05/25 05:59:16;;;;;;;8.48;4.05;;;;;;;13.90;83.10;100041.70;1748607;80;26121;-75
2021/05/25 06:01:42;;;;;;;5.78;3.62;;;;;;;13.91;83.16;100033.64;1751244;80;25554;-73
2021/05/25 06:04:08;;;;;;;5.60;3.30;;;;;;;13.92;83.49;100031.31;1751835;80;25179;-73
2021/05/25 06:06:34;;;;;;;6.40;4.00;;;;;;;13.93;83.56;100026.86;1750734;80;25220;-75
2021/05/25 06:09:00;;;;;;;6.03;3.92;;;;;;;13.92;83.43;100027.88;1752611;80;25520;-75
2021/05/25 06:11:27;;;;;;;8.28;3.95;;;;;;;13.92;83.67;100031.81;1748079;80;25225;-75
2021/05/25 06:13:52;;;;;;;7.92;3.47;;;;;;;13.94;83.87;100032.41;1752360;80;31280;-75
2021/05/25 06:16:18;;;;;;;7.92;3.15;;;;;;;13.93;83.66;100035.55;1749480;80;34605;-75
2021/05/25 06:18:44;;;;;;;9.08;3.20;;;;;;;13.93;84.02;100040.00;1753431;80;32390;-75
2021/05/25 06:21:10;;;;;;;8.03;3.50;;;;;;;13.92;83.88;100039.19;1750297;80;25904;-73
2021/05/25 06:23:36;;;;;;;5.95;3.22;;;;;;;13.97;83.98;100039.42;1748500;80;32845;-73
2021/05/25 06:26:03;;;;;;;6.00;3.50;;;;;;;14.02;84.23;100035.38;1748776;80;31187;-74
2021/05/25 06:28:31;;;;;;;5.00;2.65;;;;;;;14.07;84.23;100032.98;1747654;80;25225;-72
2021/05/25 06:30:59;;;;;;;10.78;3.75;;;;;;;14.12;84.16;100035.84;1750122;80;25344;-74
2021/05/25 06:33:25;;;;;;;6.92;3.72;;;;;;;14.12;83.99;100027.95;1724582;80;25541;-74
2021/05/25 06:35:51;;;;;;;6.17;3.20;;;;;;;14.13;84.07;100026.45;1751260;80;25322;-73
2021/05/25 06:38:19;;;;;;;5.42;3.40;;;;;;;14.15;84.14;100032.81;1748853;80;25384;-74
2021/05/25 06:40:45;;;;;;;3.72;2.83;;;;;;;14.21;84.20;100026.28;1706118;80;25258;-73
2021/05/25 06:43:11;;;;;;;7.20;3.08;;;;;;;14.23;84.23;100026.58;1750396;80;25163;-74
2021/05/25 06:45:37;;;;;;;6.12;3.40;;;;;;;14.28;84.32;100026.80;1749601;80;25737;-73
2021/05/25 06:48:05;;;;;;;7.65;3.45;;;;;;;14.31;84.14;100019.83;1750364;80;25478;-73
2021/05/25 06:50:31;;;;;;;11.38;3.00;;;;;;;14.33;84.27;100023.08;1748887;80;25197;-74
2021/05/25 06:52:57;;;;;;;9.25;2.55;;;;;;;14.35;84.39;100016.63;1749230;80;25194;-73
2021/05/25 06:55:24;;;;;;;6.83;2.95;;;;;;;14.40;84.26;100022.10;1752061;80;25902;-72
2021/05/25 06:57:50;;;;;;;5.78;2.90;;;;;;;14.44;84.30;100025.94;1754177;80;25627;-74
2021/05/25 07:00:21;;;;;;;6.53;2.83;;;;;;;14.44;84.22;100024.63;1749688;80;25650;-73
2021/05/25 07:02:47;;;;;;;5.75;2.55;;;;;;;14.49;84.40;100023.23;1750394;80;25652;-74
2021/05/25 07:05:13;;;;;;;5.60;2.50;;;;;;;14.56;84.48;100020.13;1748698;80;35329;-73
2021/05/25 07:07:39;;;;;;;4.37;2.30;;;;;;;14.60;84.53;100015.59;1748243;80;25575;-74
2021/05/25 07:10:07;;;;;;;5.05;2.20;;;;;;;14.61;84.39;100013.25;1750493;80;26152;-74
2021/05/25 07:12:34;;;;;;;5.50;2.40;;;;;;;14.67;84.73;100014.27;1748670;80;25520;-73
2021/05/25 07:15:00;;;;;;;2.92;2.08;;;;;;;14.75;84.75;100010.13;1752385;80;25572;-73
2021/05/25 07:17:26;;;;;;;3.42;2.40;;;;;;;14.84;84.91;100016.84;1749005;80;25580;-74
2021/05/25 07:19:52;;;;;;;6.20;3.20;;;;;;;14.91;84.76;100012.88;1750770;80;25769;-72
2021/05/25 07:22:18;;;;;;;3.92;2.20;;;;;;;14.93;84.65;99992.96;1749755;80;25602;-74
2021/05/25 07:24:46;;;;;;;3.83;2.25;;;;;;;14.93;84.65;99992.96;1733585;80;25382;-72
2021/05/25 07:27:13;;;;;;;4.65;2.50;;;;;;;15.10;84.49;100012.08;1749146;80;25564;-75
2021/05/25 07:29:39;;;;;;;4.50;2.33;;;;;;;15.16;84.43;100011.77;1749775;80;25611;-75
2021/05/25 07:32:05;;;;;;;5.17;2.30;;;;;;;15.15;84.43;100016.73;1749241;80;32364;-76
2021/05/25 07:34:32;;;;;;;5.50;2.30;;;;;;;15.16;84.33;100011.77;1752696;80;25510;-75
2021/05/25 07:36:58;;;;;;;3.00;2.05;;;;;;;15.23;84.29;100016.53;1748095;80;25702;-74
2021/05/25 07:39:24;;;;;;;4.80;2.40;;;;;;;15.29;84.33;100007.81;1747725;80;25489;-75
2021/05/25 07:41:50;;;;;;;6.75;2.60;;;;;;;15.28;84.14;100010.66;1727914;81;34588;-73
2021/05/25 07:44:16;;;;;;;4.08;2.33;;;;;;;15.31;83.92;100010.25;1747100;80;25186;-72
2021/05/25 07:46:42;;;;;;;6.42;2.95;;;;;;;15.35;83.56;100008.00;1749820;80;26035;-74
2021/05/25 07:49:08;;;;;;;5.20;2.83;;;;;;;15.38;83.98;100010.23;1720242;80;32862;-73
2021/05/25 07:51:34;;;;;;;5.22;2.10;;;;;;;15.36;83.96;100004.34;1747256;80;25425;-73
2021/05/25 07:54:00;;;;;;;5.67;2.92;;;;;;;15.36;83.49;100007.81;1750144;80;34760;-74
2021/05/25 07:56:26;;;;;;;4.10;2.40;;;;;;;15.41;83.74;99999.28;1746445;80;25236;-75
2021/05/25 07:58:55;;;;;;;3.62;2.15;;;;;;;15.44;83.93;99993.11;1746271;80;25548;-74
2021/05/25 08:01:21;;;;;;;10.30;6.50;;;;;;;15.57;83.89;99998.84;1726772;80;25208;-76
2021/05/25 08:03:47;;;;;;;8.05;3.67;;;;;;;15.67;83.41;99997.11;1752191;80;25657;-75
2021/05/25 08:06:13;;;;;;;5.85;3.15;;;;;;;15.74;83.18;99993.95;1748380;80;25221;-75
2021/05/25 08:08:39;;;;;;;8.08;2.80;;;;;;;15.80;83.25;99992.34;1734953;81;32241;-74
2021/05/25 08:11:11;;;;;;;5.47;3.00;;;;;;;15.84;83.12;99981.67;1738238;81;26424;-74
2021/05/25 08:13:34;;;;;;;7.30;3.83;;;;;;;15.82;82.41;99987.64;1737015;80;25397;-75
2021/05/25 08:16:00;;;;;;;6.67;3.20;;;;;;;15.81;82.23;99993.44;1739909;80;25263;-74
2021/05/25 08:21:07;;;;;;;4.60;2.70;;;;;;;15.83;82.10;99987.97;1718229;80;25445;-73
2021/05/25 08:23:33;;;;;;;5.33;2.27;;;;;;;15.88;82.03;99990.80;1739279;80;25597;-74
2021/05/25 08:26:03;;;;;;;5.03;2.27;;;;;;;15.88;81.35;99995.55;1741732;80;25184;-74
2021/05/25 08:28:27;;;;;;;7.45;2.50;;;;;;;15.85;81.43;99999.92;1711347;81;25574;-76
2021/05/25 08:30:53;;;;;;;3.15;1.92;;;;;;;15.84;81.40;99993.02;1738899;80;34694;-75
2021/05/25 08:33:20;;;;;;;2.90;2.10;;;;;;;15.84;81.66;99983.79;1740706;80;25518;-76
2021/05/25 08:35:47;;;;;;;7.67;2.60;;;;;;;15.86;81.28;99991.50;1742691;80;25591;-77
2021/05/25 08:38:16;;;;;;;4.75;2.22;;;;;;;15.88;81.10;99992.91;1738095;80;25230;-76
2021/05/25 08:40:45;;;;;;;4.15;2.10;;;;;;;15.85;80.86;100001.72;1741210;80;25700;-74
2021/05/25 08:43:12;;;;;;;7.30;1.90;;;;;;;15.83;80.67;99997.19;1739810;80;25171;-74
2021/05/25 08:45:38;;;;;;;3.52;1.80;;;;;;;15.79;80.33;100005.20;1741381;80;25575;-74
2021/05/25 08:48:06;;;;;;;8.63;1.98;;;;;;;15.74;80.02;100004.49;1741416;80;26227;-74
2021/05/25 08:50:32;;;;;;;6.72;2.33;;;;;;;15.70;80.02;100002.79;1741746;80;25565;-75
2021/05/25 08:53:04;;;;;;;9.00;2.85;;;;;;;15.69;80.00;100001.19;1741503;80;25753;-74
2021/05/25 08:55:30;;;;;;;3.27;2.43;;;;;;;15.71;79.99;100003.59;1739316;80;25490;-76
2021/05/25 08:57:57;;;;;;;6.58;2.35;;;;;;;15.71;79.97;100000.95;1740908;80;25164;-76
2021/05/25 09:00:26;;;;;;;7.08;2.58;;;;;;;15.68;79.98;100003.50;1743130;80;25580;-75
2021/05/25 09:02:54;;;;;;;7.17;2.33;;;;;;;15.69;80.13;99999.06;1742249;80;25607;-75
2021/05/25 09:05:21;;;;;;;4.12;2.15;;;;;;;15.68;80.35;100008.77;1738367;80;25792;-75
2021/05/25 09:07:59;;;;;;;4.62;2.60;;;;;;;15.68;80.05;100008.77;1743428;81;25153;-74
2021/05/25 09:10:40;;;;;;;6.30;2.70;;;;;;;15.68;80.07;100003.50;1739299;80;25627;-75
2021/05/25 09:13:23;;;;;;;5.97;2.90;;;;;;;15.71;80.18;100007.06;1744157;80;25526;-73
2021/05/25 09:15:53;;;;;;;6.53;2.55;;;;;;;15.72;80.02;100021.84;1740128;80;25597;-71
2021/05/25 09:18:27;;;;;;;5.50;2.83;;;;;;;15.75;79.78;100016.67;1742257;80;25195;-75
2021/05/25 09:20:56;;;;;;;5.20;3.22;;;;;;;15.71;79.85;100036.53;1739531;80;25190;-75
2021/05/25 09:23:38;;;;;;;4.92;2.98;;;;;;;15.67;79.86;100030.84;1744427;80;25198;-75
2021/05/25 09:26:11;;;;;;;7.40;3.25;;;;;;;15.69;79.89;100015.67;1741820;80;27581;-71
2021/05/25 09:29:02;;;;;;;4.53;3.33;;;;;;;15.74;79.82;100026.41;1742385;80;25578;-73
2021/05/25 09:31:48;;;;;;;5.62;3.72;;;;;;;15.82;79.77;100029.30;1739981;80;25786;-76
2021/05/25 09:34:21;;;;;;;6.20;3.27;;;;;;;15.86;79.59;100025.77;1743342;80;25631;-75
2021/05/25 09:37:11;;;;;;;8.73;3.87;;;;;;;15.87;79.29;100026.86;1741863;80;25195;-75
2021/05/25 09:39:46;;;;;;;7.15;4.08;;;;;;;15.90;78.93;100027.75;1739855;80;25754;-76
2021/05/25 09:42:12;;;;;;;8.15;3.70;;;;;;;15.94;78.86;100027.66;1740190;80;25252;-77
2021/05/25 09:45:01;;;;;;;7.00;3.75;;;;;;;15.92;78.47;100028.88;1740679;80;25592;-75
2021/05/25 09:47:42;;;;;;;5.00;3.25;;;;;;;15.93;78.48;100024.73;1742733;80;25518;-75
2021/05/25 09:50:16;;;;;;;8.83;3.60;;;;;;;16.04;78.46;100021.13;1742814;80;25191;-73
2021/05/25 09:53:11;;;;;;;10.13;4.45;;;;;;;16.15;78.88;100013.87;1722832;81;25631;-73
2021/05/25 09:55:56;;;;;;;5.62;4.12;;;;;;;16.34;79.04;100018.27;1711906;81;25256;-74
2021/05/25 09:58:34;;;;;;;7.42;3.87;;;;;;;16.59;78.91;100013.55;1709685;82;25732;-72
2021/05/25 10:01:04;;;;;;;6.53;4.30;;;;;;;16.87;78.44;100015.81;1684011;83;25313;-72
2021/05/25 10:03:33;;;;;;;;;;;;;;;17.03;77.76;100010.52;1709410;82;25609;-73
2021/05/25 10:06:01;;;;;;;5.62;4.00;;;;;;;17.21;77.14;100013.70;1703579;81;25622;-73
2021/05/25 10:08:29;;;;;;;7.58;4.15;;;;;;;17.35;76.50;100011.25;1705416;81;25603;-74
2021/05/25 10:10:58;;;;;;;7.22;4.58;;;;;;;17.35;74.80;100011.25;1693038;82;25674;-74
2021/05/25 10:13:27;;;;;;;6.05;3.90;;;;;;;17.36;75.78;100012.86;1705350;82;25232;-74
2021/05/25 10:15:53;;;;;;;6.60;4.20;;;;;;;17.51;75.06;100012.00;1677129;84;25200;-73
2021/05/25 10:20:55;;;;;;;8.25;4.42;;;;;;;17.77;75.59;99998.20;1675356;83;25531;-72
2021/05/25 10:23:23;;;;;;;5.20;3.67;;;;;;;17.93;74.50;100000.27;1647397;85;25291;-73
2021/05/25 10:25:54;;;;;;;5.10;3.00;;;;;;;17.90;72.15;99999.92;1665683;84;25651;-73
2021/05/25 10:28:21;;;;;;;5.72;3.20;;;;;;;17.87;72.64;100000.33;1664960;85;25606;-72
2021/05/25 10:30:50;;;;;;;6.03;2.90;;;;;;;17.84;72.41;99999.45;1662630;84;25689;-73
2021/05/25 10:33:21;;;;;;;4.47;2.27;;;;;;;17.92;71.48;100011.89;1688802;83;25571;-74
2021/05/25 10:36:09;;;;;;;4.67;2.00;;;;;;;17.91;69.09;99999.68;1690901;81;25209;-73
2021/05/25 10:38:46;;;;;;;5.85;2.80;;;;;;;18.02;69.59;100002.61;1747918;80;25612;-75
2021/05/25 10:41:31;;;;;;;6.22;2.58;;;;;;;18.07;69.22;100003.56;1735351;81;25558;-72
2021/05/25 10:43:56;;;;;;;3.10;2.40;;;;;;;18.10;69.95;100008.92;1724371;81;25535;-74
2021/05/25 10:46:25;;;;;;;5.50;2.50;;;;;;;18.28;70.80;100007.56;1750204;80;25271;-73
2021/05/25 10:51:52;;;;;;;3.10;1.82;;;;;;;18.58;69.97;100006.23;1749844;80;25674;-74
2021/05/25 10:54:34;;;;;;;4.17;2.02;;;;;;;18.70;68.59;99995.66;1725569;81;25448;-72
2021/05/25 10:57:24;;;;;;;3.98;1.92;;;;;;;18.74;68.10;99998.64;1722468;81;25594;-73
2021/05/25 11:00:09;;;;;;;3.22;1.77;;;;;;;18.90;67.99;99994.03;1750062;80;25557;-73
2021/05/25 11:03:02;;;;;;;3.77;1.72;;;;;;;19.07;66.56;99994.19;1736320;80;25268;-73
2021/05/25 11:05:41;;;;;;;3.77;2.15;;;;;;;19.11;65.17;100002.47;1749248;80;25607;-73
2021/05/25 11:08:19;;;;;;;4.67;1.87;;;;;;;19.12;63.83;100003.55;1749765;80;25729;-74
2021/05/25 11:10:54;;;;;;;3.02;1.70;;;;;;;19.21;63.98;100004.04;1725252;81;27123;-74
2021/05/25 11:13:23;;;;;;;4.20;1.98;;;;;;;19.27;62.38;99998.61;1743845;80;25158;-73
2021/05/25 11:16:17;;;;;;;6.03;1.80;;;;;;;19.43;64.69;99997.11;1740430;80;25653;-73
2021/05/25 11:22:00;;;;;;;4.28;2.30;;;;;;;19.73;62.67;99991.67;1729966;80;26472;-74
2021/05/25 11:24:32;;;;;;;5.17;2.30;;;;;;;19.64;59.93;99992.22;1740210;80;25849;-75
2021/05/25 11:27:29;;;;;;;3.65;1.77;;;;;;;19.57;62.34;99988.38;1741399;80;25667;-76
2021/05/25 11:30:04;;;;;;;9.60;4.35;;;;;;;19.59;61.76;99984.98;1738786;80;25514;-76
2021/05/25 11:32:37;;;;;;;3.30;2.00;;;;;;;19.69;61.70;99986.53;1741911;80;25793;-76
2021/05/25 11:35:11;;;;;;;5.78;1.75;;;;;;;19.87;61.10;99982.92;1742855;80;25252;-76
2021/05/25 11:37:42;;;;;;;5.10;3.20;;;;;;;19.84;58.49;99977.30;1744143;80;25636;-76
2021/05/25 11:40:16;;;;;;;3.65;2.27;;;;;;;19.62;60.20;99978.41;1741767;80;25209;-75
2021/05/25 11:42:47;;;;;;;7.33;2.37;;;;;;;19.48;59.65;99993.77;1744251;80;25301;-76
2021/05/25 11:45:16;;;;;;;6.10;2.67;;;;;;;19.24;59.72;99988.48;1742567;80;25144;-75
2021/05/25 11:47:43;;;;;;;8.80;3.02;;;;;;;19.12;60.33;99990.31;1745229;80;25172;-76